Time;durP1;ratioP1;P1;durP2;ratioP2;P2;SDS_P1;SDS_P2;PMS_P1;PMS_P2;Temp;Humidity;BMP_temperature;BMP_pressure;BME280_temperature;BME280_humidity;BME280_pressure;Samples;Min_cycle;Max_cycle;Signal;HPM_P1;HPM_P2
2022/01/17 00:01:53;;;;;;;19.27;8.07;;;;;;;;;;4948015;29;20028;-70
2022/01/17 00:04:20;;;;;;;17.52;8.50;;;;;;;;;;4938190;29;20039;-70
2022/01/17 00:06:47;;;;;;;18.88;9.57;;;;;;;;;;4938037;29;20445;-70
2022/01/17 00:09:14;;;;;;;20.10;8.48;;;;;;;;;;4937819;29;20043;-72
2022/01/17 00:11:44;;;;;;;18.33;8.65;;;;;;;;;;4937693;29;20035;-71
2022/01/17 00:14:14;;;;;;;16.73;7.78;;;;;;;;;;4936465;29;20039;-70
2022/01/17 00:16:46;;;;;;;16.05;8.00;;;;;;;;;;4936423;29;20218;-70
2022/01/17 00:21:49;;;;;;;17.83;8.15;;;;;;;;;;4937721;29;20048;-70
2022/01/17 00:24:16;;;;;;;15.65;7.60;;;;;;;;;;4937384;29;20143;-70
2022/01/17 00:26:42;;;;;;;14.90;7.22;;;;;;;;;;4920266;29;20535;-72
2022/01/17 00:29:09;;;;;;;13.93;6.72;;;;;;;;;;4937685;29;20038;-70
2022/01/17 00:31:35;;;;;;;15.52;8.00;;;;;;;;;;4937616;29;20044;-70
2022/01/17 00:34:01;;;;;;;15.48;7.07;;;;;;;;;;4937115;29;20031;-70
2022/01/17 00:36:27;;;;;;;13.35;6.75;;;;;;;;;;4937325;29;20031;-70
2022/01/17 00:38:54;;;;;;;14.32;6.88;;;;;;;;;;4920146;29;20032;-71
2022/01/17 00:41:20;;;;;;;15.43;7.10;;;;;;;;;;4937249;29;20040;-70
2022/01/17 00:43:46;;;;;;;14.70;7.03;;;;;;;;;;4937697;29;20024;-70
2022/01/17 00:46:13;;;;;;;14.38;6.30;;;;;;;;;;4920070;29;20055;-71
2022/01/17 00:48:39;;;;;;;12.65;6.72;;;;;;;;;;4920019;29;20043;-70
2022/01/17 00:51:05;;;;;;;14.40;7.18;;;;;;;;;;4919990;29;20034;-70
2022/01/17 00:53:33;;;;;;;14.50;6.32;;;;;;;;;;4937297;29;20116;-70
2022/01/17 00:56:00;;;;;;;14.82;7.53;;;;;;;;;;4919938;29;20030;-70
2022/01/17 00:58:26;;;;;;;12.30;5.90;;;;;;;;;;4937228;29;20397;-70
2022/01/17 01:00:52;;;;;;;13.63;6.45;;;;;;;;;;4937128;29;20091;-70
2022/01/17 01:03:18;;;;;;;11.93;6.13;;;;;;;;;;4919796;29;20469;-69
2022/01/17 01:05:45;;;;;;;13.48;6.22;;;;;;;;;;4919705;29;20065;-71
2022/01/17 01:08:11;;;;;;;13.80;6.35;;;;;;;;;;4936647;29;20051;-72
2022/01/17 01:10:37;;;;;;;11.52;6.05;;;;;;;;;;4937014;29;20038;-70
2022/01/17 01:13:04;;;;;;;14.07;6.18;;;;;;;;;;4919547;29;20484;-71
2022/01/17 01:16:09;;;;;;;13.30;6.25;;;;;;;;;;4919528;29;20035;-70
2022/01/17 01:18:37;;;;;;;14.18;6.20;;;;;;;;;;4934134;29;20477;-70
2022/01/17 01:29:30;;;;;;;9.13;4.60;;;;;;;;;;4937471;29;20054;-72
2022/01/17 01:32:02;;;;;;;10.23;5.30;;;;;;;;;;4937939;29;20027;-70
2022/01/17 01:34:51;;;;;;;11.10;5.00;;;;;;;;;;4919959;29;20027;-72
2022/01/17 01:37:17;;;;;;;11.38;5.40;;;;;;;;;;4919740;29;20504;-71
2022/01/17 01:39:45;;;;;;;12.35;6.10;;;;;;;;;;4919866;29;20032;-69
2022/01/17 01:42:17;;;;;;;12.88;5.55;;;;;;;;;;4945410;29;20055;-71
2022/01/17 01:44:44;;;;;;;12.68;5.78;;;;;;;;;;4919936;29;20032;-69
2022/01/17 01:47:10;;;;;;;13.00;5.78;;;;;;;;;;4919086;29;20512;-69
2022/01/17 01:49:36;;;;;;;11.48;5.47;;;;;;;;;;4919733;29;20036;-69
2022/01/17 01:52:03;;;;;;;11.35;5.38;;;;;;;;;;4919641;29;20031;-71
2022/01/17 01:54:29;;;;;;;12.00;5.65;;;;;;;;;;4936818;29;20122;-69
2022/01/17 01:56:55;;;;;;;12.05;4.97;;;;;;;;;;4918749;29;20476;-69
2022/01/17 01:59:22;;;;;;;10.27;5.07;;;;;;;;;;4918848;29;20060;-70
2022/01/17 02:01:49;;;;;;;11.82;5.53;;;;;;;;;;4918717;29;20038;-70
2022/01/17 02:04:15;;;;;;;10.93;5.07;;;;;;;;;;4935998;29;20055;-70
2022/01/17 02:06:42;;;;;;;10.77;5.43;;;;;;;;;;4935887;29;20027;-70
2022/01/17 02:09:09;;;;;;;12.35;5.50;;;;;;;;;;4918617;29;20032;-70
2022/01/17 02:11:36;;;;;;;11.32;5.45;;;;;;;;;;4935574;29;20040;-70
2022/01/17 02:14:03;;;;;;;11.00;5.20;;;;;;;;;;4936135;29;20028;-70
2022/01/17 02:16:30;;;;;;;11.82;5.45;;;;;;;;;;4935456;29;20122;-70
2022/01/17 02:18:56;;;;;;;13.25;5.68;;;;;;;;;;4935517;29;20473;-71
2022/01/17 02:24:22;;;;;;;13.75;6.47;;;;;;;;;;4913373;29;20040;-69
2022/01/17 02:26:49;;;;;;;11.85;5.45;;;;;;;;;;4918310;29;20474;-70
2022/01/17 02:29:16;;;;;;;9.40;4.93;;;;;;;;;;4918312;29;20131;-70
2022/01/17 02:31:43;;;;;;;11.32;5.07;;;;;;;;;;4935521;29;20071;-71
2022/01/17 02:34:10;;;;;;;12.23;5.70;;;;;;;;;;4918325;29;20158;-70
2022/01/17 02:36:36;;;;;;;10.27;4.63;;;;;;;;;;4918289;29;20023;-69
2022/01/17 02:39:04;;;;;;;10.98;5.65;;;;;;;;;;4935663;29;20080;-70
2022/01/17 02:41:32;;;;;;;9.13;4.90;;;;;;;;;;4918259;29;20027;-69
2022/01/17 02:44:01;;;;;;;12.43;6.13;;;;;;;;;;4935317;29;20127;-70
2022/01/17 02:46:27;;;;;;;11.18;5.00;;;;;;;;;;4918183;29;20131;-70
2022/01/17 02:48:57;;;;;;;10.63;5.38;;;;;;;;;;4918379;29;20054;-70
2022/01/17 02:51:23;;;;;;;12.95;5.45;;;;;;;;;;4935217;29;20046;-70
2022/01/17 02:53:50;;;;;;;9.95;5.15;;;;;;;;;;4935123;29;20035;-72
2022/01/17 02:56:17;;;;;;;11.07;5.78;;;;;;;;;;4935233;29;20120;-71
2022/01/17 02:58:44;;;;;;;12.45;5.55;;;;;;;;;;4939031;29;20126;-70
2022/01/17 03:01:17;;;;;;;14.18;5.72;;;;;;;;;;4939042;29;20047;-72
2022/01/17 03:03:44;;;;;;;12.20;5.55;;;;;;;;;;4939066;29;20388;-72
2022/01/17 03:06:11;;;;;;;14.10;5.47;;;;;;;;;;4939036;29;20024;-70
2022/01/17 03:08:38;;;;;;;13.10;5.35;;;;;;;;;;4939083;29;20457;-70
2022/01/17 03:11:06;;;;;;;12.30;5.70;;;;;;;;;;4939143;29;20031;-70
2022/01/17 03:13:35;;;;;;;11.15;5.38;;;;;;;;;;4938829;29;20034;-70
2022/01/17 03:16:04;;;;;;;15.80;6.43;;;;;;;;;;4938868;29;20034;-69
2022/01/17 03:18:31;;;;;;;13.57;6.47;;;;;;;;;;4937920;29;20035;-70
2022/01/17 03:20:58;;;;;;;12.93;6.45;;;;;;;;;;4938522;29;20500;-71
2022/01/17 03:23:24;;;;;;;13.50;6.20;;;;;;;;;;4927128;29;20044;-71
2022/01/17 03:25:51;;;;;;;14.10;6.03;;;;;;;;;;4941598;29;20062;-72
2022/01/17 03:28:17;;;;;;;11.68;5.57;;;;;;;;;;4938546;29;20036;-70
2022/01/17 03:30:44;;;;;;;11.07;5.82;;;;;;;;;;4921411;29;20083;-70
2022/01/17 03:33:12;;;;;;;13.38;6.32;;;;;;;;;;4938440;29;20401;-70
2022/01/17 03:35:39;;;;;;;14.55;6.45;;;;;;;;;;4938457;29;20088;-71
2022/01/17 03:38:07;;;;;;;13.95;6.60;;;;;;;;;;4921331;29;20036;-69
2022/01/17 03:40:34;;;;;;;12.30;5.75;;;;;;;;;;4938509;29;20056;-70
2022/01/17 03:43:00;;;;;;;12.15;5.85;;;;;;;;;;4921228;29;20028;-70
2022/01/17 03:45:26;;;;;;;11.50;6.03;;;;;;;;;;4938222;29;20465;-70
2022/01/17 03:47:52;;;;;;;12.23;5.63;;;;;;;;;;4921144;29;20036;-70
2022/01/17 03:50:20;;;;;;;13.93;6.50;;;;;;;;;;4921166;29;20031;-70
2022/01/17 03:52:47;;;;;;;12.43;5.97;;;;;;;;;;4921046;29;20393;-69
2022/01/17 03:55:15;;;;;;;13.15;6.18;;;;;;;;;;4938151;29;20107;-69
2022/01/17 03:57:44;;;;;;;11.23;5.85;;;;;;;;;;4920912;29;20473;-70
2022/01/17 04:00:13;;;;;;;14.27;6.35;;;;;;;;;;4920877;29;20031;-70
2022/01/17 04:02:40;;;;;;;12.77;6.18;;;;;;;;;;4920908;29;20396;-70
2022/01/17 04:05:07;;;;;;;14.45;6.82;;;;;;;;;;4938120;29;20032;-70
2022/01/17 04:07:33;;;;;;;12.13;6.25;;;;;;;;;;4938027;29;20082;-70
2022/01/17 04:09:59;;;;;;;13.57;7.22;;;;;;;;;;4937264;29;20544;-72
2022/01/17 04:12:25;;;;;;;12.90;6.13;;;;;;;;;;4937861;29;20023;-72
2022/01/17 04:14:54;;;;;;;12.50;6.10;;;;;;;;;;4938035;29;20034;-69
2022/01/17 04:17:26;;;;;;;12.45;6.22;;;;;;;;;;4920876;29;20058;-69
2022/01/17 04:19:59;;;;;;;15.32;6.97;;;;;;;;;;4920743;29;20036;-69
2022/01/17 04:22:26;;;;;;;12.55;6.50;;;;;;;;;;4928920;29;20047;-69
2022/01/17 04:24:52;;;;;;;14.20;6.63;;;;;;;;;;4936356;29;20058;-69
2022/01/17 04:27:19;;;;;;;12.68;6.43;;;;;;;;;;4937391;29;20031;-69
2022/01/17 04:29:45;;;;;;;12.45;6.53;;;;;;;;;;4937490;29;20118;-69
2022/01/17 04:32:11;;;;;;;14.38;7.40;;;;;;;;;;4937636;29;20381;-70
2022/01/17 04:34:39;;;;;;;13.98;7.32;;;;;;;;;;4937659;29;20035;-70
2022/01/17 04:37:07;;;;;;;14.32;7.55;;;;;;;;;;4937341;29;20051;-69
2022/01/17 04:39:34;;;;;;;15.15;6.95;;;;;;;;;;4936067;29;20024;-70
2022/01/17 04:42:02;;;;;;;13.98;7.25;;;;;;;;;;4937461;29;20054;-71
2022/01/17 04:47:14;;;;;;;14.45;7.57;;;;;;;;;;4937108;29;20543;-71
2022/01/17 04:49:40;;;;;;;14.63;7.45;;;;;;;;;;4937102;29;20032;-70
2022/01/17 04:52:12;;;;;;;15.18;7.35;;;;;;;;;;4937024;29;20028;-71
2022/01/17 04:54:41;;;;;;;13.93;7.65;;;;;;;;;;4935812;29;20030;-71
2022/01/17 04:57:08;;;;;;;13.25;6.95;;;;;;;;;;4935673;29;20031;-70
2022/01/17 04:59:34;;;;;;;11.70;6.88;;;;;;;;;;4936952;29;20036;-71
2022/01/17 05:02:01;;;;;;;19.25;8.20;;;;;;;;;;4936816;29;20058;-73
2022/01/17 05:04:27;;;;;;;14.27;7.93;;;;;;;;;;4944100;29;20028;-71
2022/01/17 05:06:53;;;;;;;16.30;8.65;;;;;;;;;;4937368;29;20031;-70
2022/01/17 05:09:19;;;;;;;14.90;7.57;;;;;;;;;;4935516;29;20058;-70
2022/01/17 05:11:45;;;;;;;14.90;7.90;;;;;;;;;;4935441;29;20481;-70
2022/01/17 05:14:12;;;;;;;15.88;7.97;;;;;;;;;;4935539;29;20028;-71
2022/01/17 05:16:46;;;;;;;17.25;7.95;;;;;;;;;;4935331;29;20119;-70
2022/01/17 05:21:57;;;;;;;15.70;7.90;;;;;;;;;;4935599;29;20086;-70
2022/01/17 05:24:24;;;;;;;16.00;8.13;;;;;;;;;;4936526;29;20059;-71
2022/01/17 05:26:50;;;;;;;19.48;8.88;;;;;;;;;;4936431;29;20107;-72
2022/01/17 05:29:17;;;;;;;14.70;7.85;;;;;;;;;;4919361;29;20039;-71
2022/01/17 05:31:43;;;;;;;14.85;8.27;;;;;;;;;;4936643;29;20035;-71
2022/01/17 05:34:10;;;;;;;17.95;7.90;;;;;;;;;;4936576;29;20103;-71
2022/01/17 05:36:36;;;;;;;15.43;8.00;;;;;;;;;;4936297;29;20034;-71
2022/01/17 05:39:02;;;;;;;15.57;8.30;;;;;;;;;;4936204;29;20083;-70
2022/01/17 05:41:28;;;;;;;16.27;8.75;;;;;;;;;;4918886;29;20099;-70
2022/01/17 05:43:55;;;;;;;14.52;8.07;;;;;;;;;;4918891;29;20035;-72
2022/01/17 05:46:22;;;;;;;15.25;8.60;;;;;;;;;;4936346;29;20035;-71
2022/01/17 05:48:49;;;;;;;14.73;8.48;;;;;;;;;;4936419;29;20500;-71
2022/01/17 05:51:15;;;;;;;15.80;8.15;;;;;;;;;;4919791;29;20023;-71
2022/01/17 05:53:41;;;;;;;16.30;8.88;;;;;;;;;;4936714;29;20044;-70
2022/01/17 05:56:07;;;;;;;17.80;8.98;;;;;;;;;;4919695;29;20031;-70
2022/01/17 05:58:33;;;;;;;16.38;9.00;;;;;;;;;;4936747;29;20040;-71
2022/01/17 06:00:59;;;;;;;16.27;8.38;;;;;;;;;;4920443;29;20031;-69
2022/01/17 06:03:25;;;;;;;15.57;8.88;;;;;;;;;;4936978;29;20055;-70
2022/01/17 06:05:52;;;;;;;17.38;9.35;;;;;;;;;;4936624;29;20031;-70
2022/01/17 06:08:18;;;;;;;18.45;9.65;;;;;;;;;;4935447;29;20070;-70
2022/01/17 06:10:44;;;;;;;16.58;8.85;;;;;;;;;;4936566;29;20103;-70
2022/01/17 06:13:10;;;;;;;17.65;8.98;;;;;;;;;;4919489;29;20055;-72
2022/01/17 06:15:37;;;;;;;19.45;10.20;;;;;;;;;;4937100;29;20449;-71
2022/01/17 06:18:03;;;;;;;17.38;9.15;;;;;;;;;;4918086;29;20067;-69
2022/01/17 06:20:29;;;;;;;17.27;9.88;;;;;;;;;;4936220;29;20020;-70
2022/01/17 06:22:55;;;;;;;19.33;9.93;;;;;;;;;;4936225;29;20051;-70
2022/01/17 06:25:21;;;;;;;19.13;8.85;;;;;;;;;;4936185;29;20107;-69
2022/01/17 06:27:47;;;;;;;19.98;9.05;;;;;;;;;;4919183;29;20165;-70
2022/01/17 06:30:13;;;;;;;16.38;8.77;;;;;;;;;;4936485;29;20078;-70
2022/01/17 06:32:40;;;;;;;17.95;9.50;;;;;;;;;;4918927;29;20138;-70
2022/01/17 06:35:06;;;;;;;20.40;8.98;;;;;;;;;;4936227;29;20035;-69
2022/01/17 06:37:32;;;;;;;17.60;8.98;;;;;;;;;;4901671;29;20020;-69
2022/01/17 06:39:59;;;;;;;17.40;9.15;;;;;;;;;;4900228;29;20393;-69
2022/01/17 06:42:25;;;;;;;28.88;12.45;;;;;;;;;;4900099;29;20501;-69
2022/01/17 06:44:51;;;;;;;18.58;8.90;;;;;;;;;;4917142;29;20077;-70
2022/01/17 06:47:17;;;;;;;15.15;9.05;;;;;;;;;;4899962;29;20038;-69
2022/01/17 06:49:44;;;;;;;16.13;8.77;;;;;;;;;;4923076;29;20416;-70
2022/01/17 06:52:10;;;;;;;17.52;9.57;;;;;;;;;;4900262;29;20024;-69
2022/01/17 06:54:36;;;;;;;16.60;8.95;;;;;;;;;;4899988;29;20038;-69
2022/01/17 06:57:02;;;;;;;15.82;8.50;;;;;;;;;;4917002;29;20024;-70
2022/01/17 06:59:28;;;;;;;16.20;8.63;;;;;;;;;;4899917;29;20040;-69
2022/01/17 07:01:54;;;;;;;17.70;8.88;;;;;;;;;;4899934;29;20030;-70
2022/01/17 07:04:20;;;;;;;18.55;8.85;;;;;;;;;;4899977;29;20035;-69
2022/01/17 07:06:46;;;;;;;15.38;8.13;;;;;;;;;;4899877;29;20040;-70
2022/01/17 07:09:16;;;;;;;13.55;7.55;;;;;;;;;;4884302;29;20036;-70
2022/01/17 07:11:42;;;;;;;17.40;8.88;;;;;;;;;;4899903;29;20089;-70
2022/01/17 07:14:09;;;;;;;14.98;8.15;;;;;;;;;;4917698;29;20501;-69
2022/01/17 07:16:36;;;;;;;14.18;7.80;;;;;;;;;;4918723;29;20432;-69
2022/01/17 07:19:03;;;;;;;16.27;9.55;;;;;;;;;;4935745;29;20094;-69
2022/01/17 07:21:29;;;;;;;17.70;8.60;;;;;;;;;;4935489;29;20056;-69
2022/01/17 07:23:55;;;;;;;17.35;8.48;;;;;;;;;;4917565;29;20034;-70
2022/01/17 07:26:23;;;;;;;14.55;8.32;;;;;;;;;;4917550;29;20040;-70
2022/01/17 07:28:49;;;;;;;17.45;9.48;;;;;;;;;;4917606;29;20035;-69
2022/01/17 07:31:19;;;;;;;15.52;8.32;;;;;;;;;;4917921;29;20095;-69
2022/01/17 07:33:45;;;;;;;17.08;9.02;;;;;;;;;;4934495;29;20027;-69
2022/01/17 07:36:17;;;;;;;16.30;8.52;;;;;;;;;;4917011;29;20554;-70
2022/01/17 07:38:44;;;;;;;16.23;8.88;;;;;;;;;;4934325;29;20106;-69
2022/01/17 07:41:11;;;;;;;14.55;8.23;;;;;;;;;;4934228;29;20039;-69
2022/01/17 07:43:38;;;;;;;18.10;9.05;;;;;;;;;;4917652;29;20024;-69
2022/01/17 07:46:07;;;;;;;19.83;9.40;;;;;;;;;;4937750;29;20023;-69
2022/01/17 07:51:19;;;;;;;18.90;9.23;;;;;;;;;;4935894;29;20102;-70
2022/01/17 07:53:45;;;;;;;18.88;9.55;;;;;;;;;;4920456;29;20493;-69
2022/01/17 07:56:11;;;;;;;19.90;9.00;;;;;;;;;;4937575;29;20028;-69
2022/01/17 07:58:38;;;;;;;20.55;9.70;;;;;;;;;;4937422;29;20099;-69
2022/01/17 08:01:04;;;;;;;17.88;9.38;;;;;;;;;;4937469;29;20023;-69
2022/01/17 08:03:31;;;;;;;18.92;9.63;;;;;;;;;;4937361;29;20505;-69
2022/01/17 08:05:57;;;;;;;18.33;9.73;;;;;;;;;;4937371;29;20031;-69
2022/01/17 08:08:23;;;;;;;16.23;9.68;;;;;;;;;;4938443;29;20036;-69
2022/01/17 08:10:49;;;;;;;20.55;10.25;;;;;;;;;;4938793;29;20055;-69
2022/01/17 08:13:15;;;;;;;19.73;8.95;;;;;;;;;;4938703;29;20028;-69
2022/01/17 08:15:42;;;;;;;17.65;9.52;;;;;;;;;;4938591;29;20027;-69
2022/01/17 08:18:08;;;;;;;17.23;8.75;;;;;;;;;;4921672;29;20079;-69
2022/01/17 08:20:34;;;;;;;18.27;9.75;;;;;;;;;;4938155;29;20081;-69
2022/01/17 08:23:00;;;;;;;18.00;8.73;;;;;;;;;;4938135;29;20060;-69
2022/01/17 08:25:27;;;;;;;23.27;8.82;;;;;;;;;;4937827;29;20481;-69
2022/01/17 08:27:54;;;;;;;17.50;9.50;;;;;;;;;;4936854;29;20047;-69
2022/01/17 08:30:20;;;;;;;20.25;9.48;;;;;;;;;;4936891;29;20038;-69
2022/01/17 08:32:46;;;;;;;14.95;8.40;;;;;;;;;;4937177;29;20116;-69
2022/01/17 08:35:13;;;;;;;17.08;8.65;;;;;;;;;;4936869;29;20400;-69
2022/01/17 08:37:40;;;;;;;20.33;8.80;;;;;;;;;;4936844;29;20034;-70
2022/01/17 08:40:07;;;;;;;18.58;9.55;;;;;;;;;;4937993;29;20051;-71
2022/01/17 08:42:36;;;;;;;16.80;9.27;;;;;;;;;;4924653;29;20059;-70
2022/01/17 08:45:02;;;;;;;20.10;10.57;;;;;;;;;;4920972;29;20024;-69
2022/01/17 08:47:28;;;;;;;18.27;9.02;;;;;;;;;;4937739;29;20039;-69
2022/01/17 08:49:54;;;;;;;21.85;12.45;;;;;;;;;;4937864;29;20036;-69
2022/01/17 08:52:20;;;;;;;16.92;8.93;;;;;;;;;;4919776;29;20039;-70
2022/01/17 08:54:47;;;;;;;16.55;8.77;;;;;;;;;;4919437;29;20043;-69
2022/01/17 08:57:14;;;;;;;17.90;8.52;;;;;;;;;;4936926;29;20035;-69
2022/01/17 08:59:41;;;;;;;15.43;8.50;;;;;;;;;;4937440;29;20402;-70
2022/01/17 09:02:07;;;;;;;16.85;9.25;;;;;;;;;;4937907;29;20099;-70
2022/01/17 09:04:36;;;;;;;16.45;7.97;;;;;;;;;;4920903;29;20043;-69
2022/01/17 09:07:02;;;;;;;21.85;10.80;;;;;;;;;;4937564;29;20082;-69
2022/01/17 09:09:29;;;;;;;17.25;8.13;;;;;;;;;;4937564;29;20039;-69
2022/01/17 09:11:55;;;;;;;20.20;10.95;;;;;;;;;;4920357;29;20392;-69
2022/01/17 09:14:21;;;;;;;15.77;7.75;;;;;;;;;;4937455;29;20039;-69
2022/01/17 09:16:47;;;;;;;19.05;9.10;;;;;;;;;;4937326;29;20027;-69
2022/01/17 09:19:14;;;;;;;15.60;7.75;;;;;;;;;;4919258;29;20024;-70
2022/01/17 09:21:41;;;;;;;17.92;9.45;;;;;;;;;;4921918;29;20039;-70
2022/01/17 09:24:07;;;;;;;16.98;7.82;;;;;;;;;;4936064;29;20477;-69
2022/01/17 09:26:33;;;;;;;15.13;8.00;;;;;;;;;;4937177;29;20031;-69
2022/01/17 09:28:59;;;;;;;15.38;8.52;;;;;;;;;;4937120;29;20465;-69
2022/01/17 09:31:25;;;;;;;15.45;7.35;;;;;;;;;;4936015;29;20109;-69
2022/01/17 09:33:51;;;;;;;17.40;8.75;;;;;;;;;;4935809;29;20369;-69
2022/01/17 09:36:17;;;;;;;14.75;7.78;;;;;;;;;;4935774;29;20056;-70
2022/01/17 09:38:44;;;;;;;16.98;8.10;;;;;;;;;;4936934;29;20512;-69
2022/01/17 09:41:10;;;;;;;16.70;7.18;;;;;;;;;;4935751;29;20091;-69
2022/01/17 09:43:36;;;;;;;18.40;8.20;;;;;;;;;;4935552;29;20020;-69
2022/01/17 09:46:03;;;;;;;19.33;8.07;;;;;;;;;;4935682;29;20127;-69
2022/01/17 09:48:35;;;;;;;12.40;7.30;;;;;;;;;;4936795;29;20063;-69
2022/01/17 09:51:14;;;;;;;13.85;7.47;;;;;;;;;;4937190;29;20029;-69
2022/01/17 09:53:40;;;;;;;14.73;7.47;;;;;;;;;;4936740;29;20028;-69
2022/01/17 09:56:09;;;;;;;15.32;8.05;;;;;;;;;;4935584;29;20531;-70
2022/01/17 09:58:36;;;;;;;19.42;7.45;;;;;;;;;;4936964;29;20417;-68
2022/01/17 10:01:04;;;;;;;14.70;7.15;;;;;;;;;;4935465;29;20098;-69
2022/01/17 10:03:30;;;;;;;11.93;6.75;;;;;;;;;;4935306;29;20036;-69
2022/01/17 10:05:57;;;;;;;15.50;7.63;;;;;;;;;;4936848;29;20024;-69
2022/01/17 10:08:24;;;;;;;15.10;6.78;;;;;;;;;;4934972;29;20386;-69
2022/01/17 10:10:57;;;;;;;13.18;6.93;;;;;;;;;;4936492;29;20489;-69
2022/01/17 10:13:26;;;;;;;16.08;8.27;;;;;;;;;;4936573;29;20434;-69
2022/01/17 10:15:56;;;;;;;16.13;6.70;;;;;;;;;;4923090;29;20115;-69
2022/01/17 10:18:33;;;;;;;16.55;6.95;;;;;;;;;;4916182;29;20032;-70
2022/01/17 10:21:35;;;;;;;12.18;6.32;;;;;;;;;;4917417;29;20532;-70
2022/01/17 10:37:17;;;;;;;8.75;4.50;;;;;;;;;;4919797;29;20051;-69
2022/01/17 10:39:53;;;;;;;11.90;5.30;;;;;;;;;;4900121;29;20028;-69
2022/01/17 10:42:23;;;;;;;8.40;3.92;;;;;;;;;;4917110;29;20040;-69
2022/01/17 10:44:49;;;;;;;8.45;4.28;;;;;;;;;;4917387;29;20032;-69
2022/01/17 10:47:20;;;;;;;9.75;3.80;;;;;;;;;;4900016;29;20478;-70
2022/01/17 10:49:47;;;;;;;9.93;4.30;;;;;;;;;;4916991;29;20059;-70
2022/01/17 10:52:26;;;;;;;9.07;4.68;;;;;;;;;;4917140;29;20035;-69
2022/01/17 10:54:56;;;;;;;8.65;4.28;;;;;;;;;;4900459;29;20025;-68
2022/01/17 10:57:22;;;;;;;9.55;4.13;;;;;;;;;;4899747;29;20397;-70
2022/01/17 10:59:51;;;;;;;8.20;3.60;;;;;;;;;;4916839;29;20060;-69
2022/01/17 11:02:17;;;;;;;8.50;5.65;;;;;;;;;;4916969;29;20073;-69
2022/01/17 11:04:44;;;;;;;7.65;4.18;;;;;;;;;;4917164;29;20024;-69
2022/01/17 11:07:10;;;;;;;5.05;2.60;;;;;;;;;;4916850;29;20035;-69
2022/01/17 11:09:40;;;;;;;6.32;3.80;;;;;;;;;;4916877;29;20040;-69
2022/01/17 11:12:11;;;;;;;5.65;2.22;;;;;;;;;;4916945;29;20048;-69
2022/01/17 11:14:38;;;;;;;5.13;2.17;;;;;;;;;;4920169;29;20024;-69
2022/01/17 11:17:14;;;;;;;6.65;2.63;;;;;;;;;;4935783;29;20392;-69
2022/01/17 11:22:26;;;;;;;5.20;2.40;;;;;;;;;;4939803;29;20504;-69
2022/01/17 11:24:53;;;;;;;4.45;2.28;;;;;;;;;;4922286;29;20031;-70
2022/01/17 11:27:19;;;;;;;3.55;1.88;;;;;;;;;;4922279;29;20036;-69
2022/01/17 11:29:47;;;;;;;4.55;2.67;;;;;;;;;;4939300;29;20177;-69
2022/01/17 11:32:13;;;;;;;5.82;2.20;;;;;;;;;;4939345;29;20019;-69
2022/01/17 11:34:39;;;;;;;3.60;1.70;;;;;;;;;;4922269;29;20038;-69
2022/01/17 11:37:06;;;;;;;4.40;1.73;;;;;;;;;;4922239;29;20034;-69
2022/01/17 11:39:32;;;;;;;3.53;1.70;;;;;;;;;;4939350;29;20083;-69
2022/01/17 11:41:58;;;;;;;5.45;2.30;;;;;;;;;;4922169;29;20026;-69
2022/01/17 11:44:35;;;;;;;6.75;2.63;;;;;;;;;;4939445;29;20032;-69
2022/01/17 11:47:01;;;;;;;4.43;2.03;;;;;;;;;;4938978;29;20495;-69
2022/01/17 11:49:35;;;;;;;4.63;2.25;;;;;;;;;;4922114;29;20059;-69
2022/01/17 11:52:01;;;;;;;4.57;2.30;;;;;;;;;;4922061;29;20032;-69
2022/01/17 11:54:31;;;;;;;4.88;2.20;;;;;;;;;;4921743;29;20028;-69
2022/01/17 11:57:04;;;;;;;3.65;2.22;;;;;;;;;;4939236;29;20028;-69
2022/01/17 11:59:32;;;;;;;5.75;2.15;;;;;;;;;;4938807;29;20551;-69
2022/01/17 12:02:16;;;;;;;3.70;1.48;;;;;;;;;;4938884;29;20024;-69
2022/01/17 12:05:02;;;;;;;5.40;2.00;;;;;;;;;;4938770;29;20028;-69
2022/01/17 12:07:36;;;;;;;6.95;2.50;;;;;;;;;;4921448;29;20039;-68
2022/01/17 12:10:07;;;;;;;4.20;2.45;;;;;;;;;;4939035;29;20035;-68
2022/01/17 12:12:33;;;;;;;4.93;2.22;;;;;;;;;;4938684;29;20499;-68
2022/01/17 12:15:05;;;;;;;4.32;2.20;;;;;;;;;;4932264;29;20028;-68
2022/01/17 12:17:31;;;;;;;5.10;2.15;;;;;;;;;;4902687;29;20060;-68
2022/01/17 12:20:09;;;;;;;5.30;2.25;;;;;;;;;;4919773;29;20054;-69
2022/01/17 12:22:44;;;;;;;4.40;2.08;;;;;;;;;;4902570;29;20048;-69
2022/01/17 12:25:26;;;;;;;5.30;2.33;;;;;;;;;;4919639;29;20028;-69
2022/01/17 12:28:02;;;;;;;7.20;1.98;;;;;;;;;;4902319;29;20024;-68
2022/01/17 12:30:39;;;;;;;5.88;2.40;;;;;;;;;;4921042;29;20478;-69
2022/01/17 12:33:10;;;;;;;7.53;1.90;;;;;;;;;;4923248;29;20024;-69
2022/01/17 12:35:45;;;;;;;4.22;1.95;;;;;;;;;;4919403;29;20103;-69
2022/01/17 12:38:15;;;;;;;5.47;2.30;;;;;;;;;;4902357;29;20060;-69
2022/01/17 12:40:42;;;;;;;4.25;2.22;;;;;;;;;;4902165;29;20032;-69
2022/01/17 12:43:15;;;;;;;4.28;2.08;;;;;;;;;;4919345;29;20385;-69
2022/01/17 12:45:45;;;;;;;4.40;1.92;;;;;;;;;;4901977;29;20032;-68
2022/01/17 12:48:13;;;;;;;5.50;2.25;;;;;;;;;;4901954;29;20036;-68
2022/01/17 12:50:40;;;;;;;4.00;2.13;;;;;;;;;;4919206;29;20032;-68
2022/01/17 12:53:07;;;;;;;4.15;2.30;;;;;;;;;;4926371;29;20067;-68
2022/01/17 12:55:36;;;;;;;5.80;2.13;;;;;;;;;;4919841;29;20500;-72
2022/01/17 12:58:09;;;;;;;4.63;2.13;;;;;;;;;;4920775;29;20034;-70
2022/01/17 13:00:35;;;;;;;4.35;1.98;;;;;;;;;;4920777;29;20434;-73
2022/01/17 13:03:01;;;;;;;5.05;1.95;;;;;;;;;;4936055;29;20036;-69
2022/01/17 13:05:35;;;;;;;3.92;1.75;;;;;;;;;;4931147;29;20425;-69
2022/01/17 13:08:04;;;;;;;4.30;1.92;;;;;;;;;;4936173;29;20058;-69
2022/01/17 13:10:31;;;;;;;4.88;2.03;;;;;;;;;;4935136;29;20497;-69
2022/01/17 13:12:57;;;;;;;5.18;2.10;;;;;;;;;;4935352;29;20024;-69
2022/01/17 13:15:24;;;;;;;2.80;1.52;;;;;;;;;;4935946;29;20399;-70
2022/01/17 13:17:53;;;;;;;5.03;1.80;;;;;;;;;;4935536;29;20070;-69
2022/01/17 13:20:21;;;;;;;4.00;1.98;;;;;;;;;;4935352;29;20445;-69
2022/01/17 13:23:01;;;;;;;4.97;2.25;;;;;;;;;;4935681;29;20055;-69
2022/01/17 13:25:27;;;;;;;6.45;2.83;;;;;;;;;;4916385;29;20034;-69
2022/01/17 13:27:58;;;;;;;6.50;2.63;;;;;;;;;;4936029;29;20035;-69
2022/01/17 13:30:25;;;;;;;4.57;2.33;;;;;;;;;;4932100;29;20031;-69
2022/01/17 13:32:51;;;;;;;4.35;2.55;;;;;;;;;;4935877;29;20070;-68
2022/01/17 13:35:22;;;;;;;5.80;2.50;;;;;;;;;;4936071;29;20027;-69
2022/01/17 13:37:49;;;;;;;6.10;2.17;;;;;;;;;;4935775;29;20036;-69
2022/01/17 13:40:23;;;;;;;5.45;2.42;;;;;;;;;;4918825;29;20028;-69
2022/01/17 13:42:49;;;;;;;6.78;3.10;;;;;;;;;;4931258;29;20062;-69
2022/01/17 13:45:15;;;;;;;6.05;2.47;;;;;;;;;;4935803;29;20023;-69
2022/01/17 13:47:53;;;;;;;5.90;2.90;;;;;;;;;;4935667;29;20036;-69
2022/01/17 13:50:19;;;;;;;5.88;2.63;;;;;;;;;;4935484;29;20032;-69
2022/01/17 13:52:45;;;;;;;7.85;2.80;;;;;;;;;;4935771;29;20031;-69
2022/01/17 13:55:34;;;;;;;6.28;2.60;;;;;;;;;;4935456;29;20106;-69
2022/01/17 13:58:01;;;;;;;5.68;2.80;;;;;;;;;;4935256;29;20107;-69
2022/01/17 14:00:36;;;;;;;5.35;2.67;;;;;;;;;;4918289;29;20020;-70
2022/01/17 14:03:03;;;;;;;6.15;2.80;;;;;;;;;;4933195;29;20028;-68
2022/01/17 14:05:31;;;;;;;6.63;2.70;;;;;;;;;;4918409;29;20024;-69
2022/01/17 14:08:11;;;;;;;5.78;2.35;;;;;;;;;;4919386;29;20122;-69
2022/01/17 14:10:46;;;;;;;5.60;2.70;;;;;;;;;;4936616;29;20377;-68
2022/01/17 14:13:12;;;;;;;4.97;2.25;;;;;;;;;;4919495;29;20023;-69
2022/01/17 14:15:38;;;;;;;5.30;2.15;;;;;;;;;;4936346;29;20160;-69
2022/01/17 14:18:07;;;;;;;5.43;2.38;;;;;;;;;;4936993;29;20132;-69
2022/01/17 14:20:34;;;;;;;4.20;1.60;;;;;;;;;;4919281;29;20082;-69
2022/01/17 14:23:00;;;;;;;4.22;1.73;;;;;;;;;;4931376;29;20484;-69
2022/01/17 14:25:26;;;;;;;4.97;2.15;;;;;;;;;;4942258;29;20035;-69
2022/01/17 14:27:59;;;;;;;5.15;2.00;;;;;;;;;;4938526;29;20035;-69
2022/01/17 14:30:29;;;;;;;5.85;2.10;;;;;;;;;;4936354;29;20040;-68
2022/01/17 14:33:13;;;;;;;4.70;2.10;;;;;;;;;;4935057;29;20118;-69
2022/01/17 14:35:58;;;;;;;6.95;2.20;;;;;;;;;;4934914;29;20126;-69
2022/01/17 14:38:24;;;;;;;5.30;2.17;;;;;;;;;;4934914;29;20035;-69
2022/01/17 14:40:51;;;;;;;5.68;1.90;;;;;;;;;;4935024;29;20028;-68
2022/01/17 14:43:17;;;;;;;5.30;2.00;;;;;;;;;;4919208;29;20031;-69
2022/01/17 14:45:50;;;;;;;5.38;2.13;;;;;;;;;;4936002;29;20024;-68
2022/01/17 14:48:17;;;;;;;4.53;2.03;;;;;;;;;;4934789;29;20044;-69
2022/01/17 14:50:44;;;;;;;4.22;2.00;;;;;;;;;;4934793;29;20259;-69
2022/01/17 14:53:17;;;;;;;5.32;1.95;;;;;;;;;;4936269;29;20032;-69
2022/01/17 15:01:23;;;;;;;5.80;2.08;;;;;;;;;;4940229;29;20082;-69
2022/01/17 15:03:53;;;;;;;5.32;2.10;;;;;;;;;;4938584;29;20035;-68
2022/01/17 15:06:19;;;;;;;4.63;2.17;;;;;;;;;;4938595;29;20032;-68
2022/01/17 15:08:48;;;;;;;4.88;1.90;;;;;;;;;;4939991;29;20039;-68
2022/01/17 15:11:14;;;;;;;4.53;1.73;;;;;;;;;;4938535;29;20047;-69
2022/01/17 15:13:40;;;;;;;3.85;1.88;;;;;;;;;;4938399;29;20090;-69
2022/01/17 15:16:06;;;;;;;4.60;2.03;;;;;;;;;;4938456;29;20027;-68
2022/01/17 15:18:32;;;;;;;4.68;1.88;;;;;;;;;;4939640;29;20039;-68
2022/01/17 15:20:58;;;;;;;4.75;1.98;;;;;;;;;;4938278;29;20052;-68
2022/01/17 15:23:25;;;;;;;4.28;1.90;;;;;;;;;;4937828;29;20094;-69